Courage — WDC6907 — position and weather

sailwx.info

Track history (hours):
 
Tides and Currents Weather Stations Pressure Air Temp Water Temp Dewpoint Dewpoint Depression Visibility Wind Speed Wind Dir Waves Ship Positions

Courage

More information available from US FCC via Universal Licensing System and Coast Guard Vessel Documentation Center.

Last reported at 2014-Aug-02 08:33 UTC. Time now 2014-Aug-02 08:44 UTC.
Position N 51°16' E 004°14'.

Type: Ship. MMSI: 367063050.

Date/timePositionNaut miles runAvg speedWind from/ knotsBaromVisibWave heightAir tempDewpointWater temp
2014-Aug-02 08:33N 51°16' E 004°14'0 0.0
2014-Aug-02 07:33N 51°16' E 004°14'0 0.0
2014-Aug-02 06:33N 51°16' E 004°14'0 0.0
2014-Aug-02 05:33N 51°16' E 004°14'0 0.0
2014-Aug-02 04:33N 51°16' E 004°14'0 0.0
2014-Aug-02 03:33N 51°16' E 004°14'0 0.0
2014-Aug-02 02:33N 51°16' E 004°14'0 0.0
2014-Aug-02 01:33N 51°16' E 004°14'0 0.0
2014-Aug-02 00:33N 51°16' E 004°14'0 0.0
2014-Aug-01 23:33N 51°16' E 004°14'0 0.0
2014-Aug-01 22:33N 51°16' E 004°14'0 0.0
2014-Aug-01 21:33N 51°16' E 004°14'0 0.0
2014-Aug-01 20:33N 51°16' E 004°14'0 0.0
2014-Aug-01 19:33N 51°16' E 004°14'0 0.0
2014-Aug-01 18:33N 51°16' E 004°14'0 0.0
2014-Aug-01 17:33N 51°16' E 004°14'0 0.0
2014-Aug-01 16:33N 51°16' E 004°14'0 0.0
2014-Aug-01 15:33N 51°16' E 004°14'0 0.0
2014-Aug-01 14:33N 51°16' E 004°14'0 0.0
2014-Aug-01 13:33N 51°16' E 004°14'0 0.0
2014-Aug-01 12:33N 51°16' E 004°14'0 0.0
2014-Aug-01 11:33N 51°16' E 004°14'0 0.0
2014-Aug-01 10:33N 51°16' E 004°14'0 0.0
2014-Aug-01 09:33N 51°16' E 004°14'0 0.0
2014-Aug-01 08:33N 51°16' E 004°14'0 0.0
2014-Aug-01 07:33N 51°16' E 004°14'0 0.0
2014-Aug-01 06:33N 51°16' E 004°14'0 0.0
2014-Aug-01 05:33N 51°16' E 004°14'0 0.0
2014-Aug-01 04:33N 51°16' E 004°14'0 0.0
2014-Aug-01 03:33N 51°16' E 004°14'0 0.0
2014-Aug-01 02:33N 51°16' E 004°14'0 0.0
2014-Aug-01 01:33N 51°16' E 004°14'0 0.0
2014-Aug-01 00:33N 51°16' E 004°14'0 0.0
2014-Jul-31 23:33N 51°16' E 004°14'0 0.0
2014-Jul-31 22:33N 51°16' E 004°14'0 0.0
2014-Jul-31 21:33N 51°16' E 004°14'0 0.0
2014-Jul-31 20:33N 51°16' E 004°14'1 1.1
2014-Jul-31 19:34N 51°16' E 004°16'0 0.4
2014-Jul-31 18:34N 51°16' E 004°17'5 5.4
2014-Jul-31 17:34N 51°21' E 004°15'9 8.8
2014-Jul-31 16:34N 51°25' E 004°02'1111.2
2014-Jul-31 15:34N 51°22' E 003°44'10 9.9
2014-Jul-31 14:33N 51°25' E 003°29'1818.0
2014-Jul-31 13:33N 51°24' E 003°01'1514.9
2014-Jul-31 12:33N 51°22' E 002°37'5 5.1
2014-Jul-31 11:34N 51°21' E 002°29'3 3.3
2014-Jul-31 10:34N 51°20' E 002°24'8 7.7
2014-Jul-31 09:33N 51°16' E 002°14'5 5.2
2014-Jul-31 08:33N 51°13' E 002°06'6 5.9
2014-Jul-31 07:33N 51°11' E 001°58'6 6.4
2014-Jul-31 06:33N 51°08' E 001°49'7 7.3
2014-Jul-31 05:33N 51°03' E 001°41'1110.8
2014-Jul-31 04:33N 50°54' E 001°29'1210.6
2014-Jul-31 03:28N 50°43' E 001°24'8 8.3
2014-Jul-31 02:33N 50°38' E 001°16'8 8.4
2014-Jul-31 01:34N 50°33' E 001°06'8 8.2
2014-Jul-31 00:33N 50°28' E 000°55'9 8.6
2014-Jul-30 23:33N 50°25' E 000°42'1813.1
2014-Jul-30 22:10N 50°21' E 000°14'6 9.1
2014-Jul-30 21:33N 50°19' E 000°06'8 8.2
2014-Jul-30 20:33N 50°17' W 000°06'37 7.3
2014-Jul-30 15:33N 50°07' W 001°02'5 4.6
2014-Jul-30 14:33N 50°05' W 001°08'6 5.6
2014-Jul-30 13:33N 50°04' W 001°16'8 7.0
2014-Jul-30 12:25N 50°02' W 001°29'8 8.7
2014-Jul-30 11:28N 49°60' W 001°41'1613.6
2014-Jul-30 10:17N 49°56' W 002°05'318 9.4
2014-Jul-29 00:32N 49°40' W 010°17'7812.0
2014-Jul-28 18:00N 49°36' W 012°18'8213.7 300 / 71022.5 5.4 1.018.016.420.0
2014-Jul-28 12:00N 49°30' W 014°24'31613.2 330 / 131025.0 2.2 0.517.017.020.0
2014-Jul-27 12:00N 48°54' W 022°24'7612.7 240 / 5 0.1 0.520.018.519.0
2014-Jul-27 06:00N 48°42' W 024°18'15913.3 180 / 121021.5 0.1 18.016.418.0
2014-Jul-26 18:00N 48°06' W 028°12'14211.8 050 / 81018.0 0.1 1.017.017.017.0
2014-Jul-26 06:00N 47°30' W 031°36'22112.3 030 / 161016.0 5.4 14.012.317.0
2014-Jul-25 12:00N 46°18' W 036°42'15212.7 310 / 81017.5 0.3 0.517.017.018.0
2014-Jul-25 00:00N 45°24' W 040°06'31113.0 290 / 201017.0 5.4 1.019.015.921.0
2014-Jul-24 00:00N 43°24' W 046°48'   310 / 201016.0 5.4 0.518.018.022.0
Track history (hours):
 
Tides and Currents Weather Stations Pressure Air Temp Water Temp Dewpoint Dewpoint Depression Visibility Wind Speed Wind Dir Waves Ship Positions

Courage

More information available from US FCC via Universal Licensing System and Coast Guard Vessel Documentation Center.

Last reported at 2014-Aug-02 08:33 UTC. Time now 2014-Aug-02 08:44 UTC.
Position N 51°16' E 004°14'.

Type: Ship. MMSI: 367063050.

Date/timePositionNaut miles runAvg speedWind from/ knotsBaromVisibWave heightAir tempDewpointWater temp
2014-Aug-02 08:33N 51°16' E 004°14'0 0.0
2014-Aug-02 07:33N 51°16' E 004°14'0 0.0
2014-Aug-02 06:33N 51°16' E 004°14'0 0.0
2014-Aug-02 05:33N 51°16' E 004°14'0 0.0
2014-Aug-02 04:33N 51°16' E 004°14'0 0.0
2014-Aug-02 03:33N 51°16' E 004°14'0 0.0
2014-Aug-02 02:33N 51°16' E 004°14'0 0.0
2014-Aug-02 01:33N 51°16' E 004°14'0 0.0
2014-Aug-02 00:33N 51°16' E 004°14'0 0.0
2014-Aug-01 23:33N 51°16' E 004°14'0 0.0
2014-Aug-01 22:33N 51°16' E 004°14'0 0.0
2014-Aug-01 21:33N 51°16' E 004°14'0 0.0
2014-Aug-01 20:33N 51°16' E 004°14'0 0.0
2014-Aug-01 19:33N 51°16' E 004°14'0 0.0
2014-Aug-01 18:33N 51°16' E 004°14'0 0.0
2014-Aug-01 17:33N 51°16' E 004°14'0 0.0
2014-Aug-01 16:33N 51°16' E 004°14'0 0.0
2014-Aug-01 15:33N 51°16' E 004°14'0 0.0
2014-Aug-01 14:33N 51°16' E 004°14'0 0.0
2014-Aug-01 13:33N 51°16' E 004°14'0 0.0
2014-Aug-01 12:33N 51°16' E 004°14'0 0.0
2014-Aug-01 11:33N 51°16' E 004°14'0 0.0
2014-Aug-01 10:33N 51°16' E 004°14'0 0.0
2014-Aug-01 09:33N 51°16' E 004°14'0 0.0
2014-Aug-01 08:33N 51°16' E 004°14'0 0.0
2014-Aug-01 07:33N 51°16' E 004°14'0 0.0
2014-Aug-01 06:33N 51°16' E 004°14'0 0.0
2014-Aug-01 05:33N 51°16' E 004°14'0 0.0
2014-Aug-01 04:33N 51°16' E 004°14'0 0.0
2014-Aug-01 03:33N 51°16' E 004°14'0 0.0
2014-Aug-01 02:33N 51°16' E 004°14'0 0.0
2014-Aug-01 01:33N 51°16' E 004°14'0 0.0
2014-Aug-01 00:33N 51°16' E 004°14'0 0.0
2014-Jul-31 23:33N 51°16' E 004°14'0 0.0
2014-Jul-31 22:33N 51°16' E 004°14'0 0.0
2014-Jul-31 21:33N 51°16' E 004°14'0 0.0
2014-Jul-31 20:33N 51°16' E 004°14'1 1.1
2014-Jul-31 19:34N 51°16' E 004°16'0 0.4
2014-Jul-31 18:34N 51°16' E 004°17'5 5.4
2014-Jul-31 17:34N 51°21' E 004°15'9 8.8
2014-Jul-31 16:34N 51°25' E 004°02'1111.2
2014-Jul-31 15:34N 51°22' E 003°44'10 9.9
2014-Jul-31 14:33N 51°25' E 003°29'1818.0
2014-Jul-31 13:33N 51°24' E 003°01'1514.9
2014-Jul-31 12:33N 51°22' E 002°37'5 5.1
2014-Jul-31 11:34N 51°21' E 002°29'3 3.3
2014-Jul-31 10:34N 51°20' E 002°24'8 7.7
2014-Jul-31 09:33N 51°16' E 002°14'5 5.2
2014-Jul-31 08:33N 51°13' E 002°06'6 5.9
2014-Jul-31 07:33N 51°11' E 001°58'6 6.4
2014-Jul-31 06:33N 51°08' E 001°49'7 7.3
2014-Jul-31 05:33N 51°03' E 001°41'1110.8
2014-Jul-31 04:33N 50°54' E 001°29'1210.6
2014-Jul-31 03:28N 50°43' E 001°24'8 8.3
2014-Jul-31 02:33N 50°38' E 001°16'8 8.4
2014-Jul-31 01:34N 50°33' E 001°06'8 8.2
2014-Jul-31 00:33N 50°28' E 000°55'9 8.6
2014-Jul-30 23:33N 50°25' E 000°42'1813.1
2014-Jul-30 22:10N 50°21' E 000°14'6 9.1
2014-Jul-30 21:33N 50°19' E 000°06'8 8.2
2014-Jul-30 20:33N 50°17' W 000°06'37 7.3
2014-Jul-30 15:33N 50°07' W 001°02'5 4.6
2014-Jul-30 14:33N 50°05' W 001°08'6 5.6
2014-Jul-30 13:33N 50°04' W 001°16'8 7.0
2014-Jul-30 12:25N 50°02' W 001°29'8 8.7
2014-Jul-30 11:28N 49°60' W 001°41'1613.6
2014-Jul-30 10:17N 49°56' W 002°05'318 9.4
2014-Jul-29 00:32N 49°40' W 010°17'7812.0
2014-Jul-28 18:00N 49°36' W 012°18'8213.7 300 / 71022.5 5.4 1.018.016.420.0
2014-Jul-28 12:00N 49°30' W 014°24'31613.2 330 / 131025.0 2.2 0.517.017.020.0
2014-Jul-27 12:00N 48°54' W 022°24'7612.7 240 / 5 0.1 0.520.018.519.0
2014-Jul-27 06:00N 48°42' W 024°18'15913.3 180 / 121021.5 0.1 18.016.418.0
2014-Jul-26 18:00N 48°06' W 028°12'14211.8 050 / 81018.0 0.1 1.017.017.017.0
2014-Jul-26 06:00N 47°30' W 031°36'22112.3 030 / 161016.0 5.4 14.012.317.0
2014-Jul-25 12:00N 46°18' W 036°42'15212.7 310 / 81017.5 0.3 0.517.017.018.0
2014-Jul-25 00:00N 45°24' W 040°06'31113.0 290 / 201017.0 5.4 1.019.015.921.0
2014-Jul-24 00:00N 43°24' W 046°48'   310 / 201016.0 5.4 0.518.018.022.0

Dump ship's entire track history